Terminal Aerodrome Forecast
Issued by NWS

Home | Current Version | Previous Version | Text Only | Print | Product List | Glossary On
Versions: 1 2 3 4 5 6 7 8 9 10 11 12 13 14 15
000
FTUS46 KMTR 020520
TAFSJC
TAF
KSJC 020520Z 0206/0306 30009KT P6SM FEW250
     FM020800 VRB03KT P6SM SCT017 BKN250
      TEMPO 0212/0216 BKN017
     FM021600 15005KT P6SM SCT020 BKN250
     FM021730 32015KT P6SM FEW020 SCT250
     FM030200 30009KT P6SM FEW015 SCT250=

USA.gov is the U.S. government's official web portal to all federal, state and local government web resources and services.